Time;durP1;ratioP1;P1;durP2;ratioP2;P2;SDS_P1;SDS_P2;PMS_P1;PMS_P2;Temp;Humidity;BMP_temperature;BMP_pressure;BME280_temperature;BME280_humidity;BME280_pressure;Samples;Min_cycle;Max_cycle;Signal;HPM_P1;HPM_P2
2022/08/27 05:02:48;;;;;;;41.40;30.08;;;19.20;99.90;;;;;;5298826;23;20056;-74
2022/08/27 05:05:14;;;;;;;35.65;26.95;;;19.20;99.90;;;;;;4925416;29;20314;-74
2022/08/27 05:07:39;;;;;;;42.97;32.38;;;19.20;99.90;;;;;;4945122;29;20027;-74
2022/08/27 05:10:05;;;;;;;44.03;31.02;;;19.20;99.90;;;;;;4944459;29;20323;-75
2022/08/27 05:12:31;;;;;;;40.90;30.33;;;19.20;99.90;;;;;;4945176;29;20035;-74
2022/08/27 05:14:57;;;;;;;40.38;29.67;;;19.20;99.90;;;;;;4945446;29;20035;-76
2022/08/27 05:17:23;;;;;;;42.83;31.48;;;19.20;99.90;;;;;;4945000;29;20066;-75
2022/08/27 05:19:49;;;;;;;40.92;30.33;;;19.30;99.90;;;;;;4945014;29;20083;-75
2022/08/27 05:22:15;;;;;;;43.60;32.45;;;19.30;99.90;;;;;;4928132;29;20016;-75
2022/08/27 05:24:40;;;;;;;37.95;28.02;;;19.30;99.90;;;;;;4941684;29;20082;-75
2022/08/27 05:27:06;;;;;;;36.15;28.25;;;19.30;99.90;;;;;;4945001;29;20028;-75
2022/08/27 05:29:32;;;;;;;41.85;30.25;;;19.40;99.90;;;;;;4944884;29;20027;-75
2022/08/27 05:31:57;;;;;;;39.70;29.98;;;19.40;99.90;;;;;;4945635;29;20035;-75
2022/08/27 05:34:23;;;;;;;38.35;30.45;;;19.40;99.90;;;;;;4945030;29;20213;-75
2022/08/27 05:36:49;;;;;;;42.20;31.10;;;19.40;99.90;;;;;;4945062;29;20103;-76
2022/08/27 05:39:16;;;;;;;41.58;30.15;;;19.40;99.90;;;;;;4927834;29;20409;-76
2022/08/27 05:41:42;;;;;;;37.22;29.25;;;19.40;99.90;;;;;;4945024;29;20257;-75
2022/08/27 05:44:08;;;;;;;38.20;29.55;;;19.40;99.90;;;;;;4943851;29;20032;-74
2022/08/27 05:46:37;;;;;;;38.28;28.30;;;19.50;99.90;;;;;;4945046;29;20051;-73
2022/08/27 05:49:02;;;;;;;38.25;28.90;;;19.50;99.90;;;;;;4944778;29;20309;-75
2022/08/27 05:51:34;;;;;;;39.05;28.83;;;19.60;99.90;;;;;;4944347;29;20039;-74
2022/08/27 05:54:03;;;;;;;36.60;27.30;;;19.70;99.90;;;;;;4945005;29;20309;-75
2022/08/27 05:56:32;;;;;;;42.55;29.40;;;19.70;99.90;;;;;;4944667;29;20036;-74
2022/08/27 06:01:46;;;;;;;36.35;27.73;;;19.80;99.90;;;;;;4940255;29;19915;-75
2022/08/27 06:04:13;;;;;;;40.60;28.27;;;19.80;99.90;;;;;;4925420;29;20077;-74
2022/08/27 06:06:41;;;;;;;36.15;28.90;;;19.90;99.90;;;;;;4925656;29;20361;-74
2022/08/27 06:09:08;;;;;;;36.65;26.90;;;19.90;99.90;;;;;;4924116;29;20229;-74
2022/08/27 06:11:34;;;;;;;40.47;29.63;;;19.90;99.90;;;;;;4925789;29;20103;-75
2022/08/27 06:14:00;;;;;;;38.15;27.95;;;20.00;99.90;;;;;;4925607;29;20040;-75
2022/08/27 06:16:26;;;;;;;35.47;26.58;;;20.00;99.90;;;;;;4917822;29;20285;-75
2022/08/27 06:18:53;;;;;;;36.55;28.02;;;20.00;99.90;;;;;;4917747;29;20043;-74
2022/08/27 06:21:20;;;;;;;36.20;28.38;;;20.00;99.90;;;;;;4924591;29;20040;-76
2022/08/27 06:23:46;;;;;;;41.30;29.30;;;20.00;99.90;;;;;;4907192;29;20044;-75
2022/08/27 06:26:14;;;;;;;32.13;26.35;;;19.90;99.90;;;;;;4889647;29;20037;-74
2022/08/27 06:28:40;;;;;;;36.45;27.50;;;19.90;99.90;;;;;;4906768;29;20056;-74
2022/08/27 06:31:11;;;;;;;39.35;28.67;;;20.00;99.90;;;;;;4906592;29;20044;-75
2022/08/27 06:33:38;;;;;;;36.50;28.08;;;20.00;99.90;;;;;;4906444;29;20037;-75
2022/08/27 06:36:06;;;;;;;36.47;27.70;;;20.10;99.90;;;;;;4924637;29;20044;-75
2022/08/27 06:38:33;;;;;;;35.80;26.98;;;20.10;99.90;;;;;;4925614;29;20040;-75
2022/08/27 06:40:59;;;;;;;38.25;29.80;;;20.10;99.90;;;;;;4925524;29;20305;-75
2022/08/27 06:43:25;;;;;;;35.30;28.33;;;20.20;99.90;;;;;;4925061;29;20043;-75
2022/08/27 06:45:52;;;;;;;35.08;27.20;;;20.30;99.90;;;;;;4925622;29;20032;-74
2022/08/27 06:48:18;;;;;;;36.33;27.65;;;20.30;99.90;;;;;;4925115;29;20020;-75
2022/08/27 06:50:44;;;;;;;35.05;27.15;;;20.40;99.90;;;;;;4924342;29;20034;-74
2022/08/27 06:53:25;;;;;;;37.78;27.65;;;20.40;99.90;;;;;;4925374;29;20055;-75
2022/08/27 06:55:51;;;;;;;34.63;27.67;;;20.40;99.90;;;;;;4922512;29;20364;-75
2022/08/27 06:58:19;;;;;;;36.13;26.92;;;20.30;99.90;;;;;;4925111;29;20028;-75
2022/08/27 07:00:45;;;;;;;35.92;26.73;;;20.40;99.90;;;;;;4909355;29;20031;-75
2022/08/27 07:03:11;;;;;;;31.77;26.02;;;20.50;99.90;;;;;;4927859;29;20104;-75
2022/08/27 07:05:40;;;;;;;35.10;26.70;;;20.50;99.90;;;;;;4928395;29;20035;-77
2022/08/27 07:08:31;;;;;;;34.15;26.13;;;20.60;99.90;;;;;;4909447;29;20080;-77
2022/08/27 07:11:00;;;;;;;34.45;25.70;;;20.50;99.90;;;;;;4913212;29;20040;-73
2022/08/27 07:13:52;;;;;;;34.67;24.75;;;20.50;99.90;;;;;;4908143;29;20031;-72
2022/08/27 07:16:30;;;;;;;32.45;24.17;;;20.60;99.90;;;;;;4920890;29;20024;-80
2022/08/27 07:19:04;;;;;;;32.00;24.50;;;20.80;99.90;;;;;;4912872;29;20052;-73
2022/08/27 07:21:40;;;;;;;31.15;24.88;;;20.90;99.90;;;;;;4911194;29;20035;-74
2022/08/27 07:24:12;;;;;;;30.42;23.40;;;21.20;99.90;;;;;;4928202;29;20020;-74
2022/08/27 07:26:41;;;;;;;28.75;22.45;;;21.40;99.90;;;;;;4928275;29;20310;-76
2022/08/27 07:29:10;;;;;;;28.02;21.00;;;21.60;99.90;;;;;;4928392;29;20028;-76
2022/08/27 07:31:37;;;;;;;24.50;21.33;;;21.80;99.90;;;;;;4927113;29;20048;-75
2022/08/27 07:34:04;;;;;;;30.15;19.55;;;22.10;99.90;;;;;;4921158;29;20037;-73
2022/08/27 07:36:30;;;;;;;26.05;20.13;;;22.20;99.90;;;;;;4891562;29;20055;-73
2022/08/27 07:38:57;;;;;;;25.95;20.33;;;22.10;99.90;;;;;;4908937;29;20174;-72
2022/08/27 07:41:23;;;;;;;29.67;22.42;;;22.00;99.90;;;;;;4908560;29;20024;-72
2022/08/27 07:46:33;;;;;;;26.63;21.65;;;21.70;99.90;;;;;;4908319;29;20035;-73
2022/08/27 07:48:59;;;;;;;27.98;21.45;;;21.50;99.90;;;;;;4892699;29;20029;-71
2022/08/27 07:51:27;;;;;;;29.83;23.13;;;21.40;99.90;;;;;;4908372;29;20040;-76
2022/08/27 07:53:53;;;;;;;28.30;21.60;;;21.30;99.90;;;;;;4908974;29;20036;-75
2022/08/27 07:56:20;;;;;;;26.25;21.42;;;21.20;99.90;;;;;;4908501;29;20024;-76
2022/08/27 07:58:46;;;;;;;27.65;21.50;;;21.20;99.90;;;;;;4892355;29;20278;-73
2022/08/27 08:01:12;;;;;;;25.55;20.23;;;21.10;99.90;;;;;;4908868;29;20028;-73
2022/08/27 08:03:39;;;;;;;29.48;22.00;;;21.10;99.90;;;;;;4908757;29;20053;-78
2022/08/27 08:06:12;;;;;;;25.42;22.10;;;21.10;99.90;;;;;;4911839;29;20039;-72
2022/08/27 08:08:39;;;;;;;28.15;21.83;;;21.10;99.90;;;;;;4929653;29;20032;-74
2022/08/27 08:11:07;;;;;;;27.48;21.60;;;21.10;99.90;;;;;;4926932;29;20055;-74
2022/08/27 08:13:33;;;;;;;28.13;23.40;;;21.20;99.90;;;;;;4926802;29;20595;-74
2022/08/27 08:15:59;;;;;;;30.70;22.40;;;21.30;99.90;;;;;;4927472;29;20063;-74
2022/08/27 08:18:26;;;;;;;26.92;21.92;;;21.20;99.90;;;;;;4927019;29;20127;-73
2022/08/27 08:20:52;;;;;;;26.73;22.10;;;21.20;99.90;;;;;;4927289;29;20036;-72
2022/08/27 08:23:18;;;;;;;30.73;23.55;;;21.20;99.90;;;;;;4926842;29;20048;-73
2022/08/27 08:25:44;;;;;;;28.20;23.58;;;21.10;99.90;;;;;;4927064;29;20096;-71
2022/08/27 08:28:10;;;;;;;32.65;24.17;;;21.00;99.90;;;;;;4926980;29;20036;-72
2022/08/27 08:30:36;;;;;;;29.35;23.83;;;20.90;99.90;;;;;;4909643;29;20129;-71
2022/08/27 08:33:02;;;;;;;30.75;24.23;;;20.80;99.90;;;;;;4926689;29;20326;-71
2022/08/27 08:35:28;;;;;;;35.50;24.77;;;20.80;99.90;;;;;;4922892;29;20035;-71
2022/08/27 08:37:54;;;;;;;31.02;24.27;;;20.70;99.90;;;;;;4925590;29;20032;-70
2022/08/27 08:40:41;;;;;;;33.17;25.60;;;20.70;99.90;;;;;;4925907;29;20218;-71
2022/08/27 08:43:20;;;;;;;35.45;24.88;;;20.70;99.90;;;;;;4926453;29;20028;-71
2022/08/27 08:45:47;;;;;;;33.47;25.17;;;20.70;99.90;;;;;;4909739;29;20032;-71
2022/08/27 08:48:19;;;;;;;32.38;26.23;;;20.70;99.90;;;;;;4926610;29;20036;-71
2022/08/27 08:50:57;;;;;;;35.83;27.42;;;20.80;99.90;;;;;;4926413;29;20040;-71
2022/08/27 08:53:37;;;;;;;36.40;26.00;;;20.80;99.90;;;;;;4926219;29;20032;-72
2022/08/27 08:56:09;;;;;;;34.38;27.10;;;20.80;99.90;;;;;;4921245;29;20027;-73
2022/08/27 08:58:56;;;;;;;34.45;27.73;;;20.80;99.90;;;;;;4926250;29;20039;-71
2022/08/27 09:01:23;;;;;;;35.85;25.95;;;20.90;99.90;;;;;;4925718;29;20043;-71
2022/08/27 09:03:58;;;;;;;31.50;25.20;;;20.90;99.90;;;;;;4925732;29;20043;-70
2022/08/27 09:06:33;;;;;;;30.85;25.30;;;21.00;99.90;;;;;;4925992;29;20032;-70
2022/08/27 09:09:15;;;;;;;38.33;27.23;;;21.00;99.90;;;;;;4926673;29;20028;-70
2022/08/27 09:12:02;;;;;;;36.78;27.48;;;21.00;99.90;;;;;;4926422;29;20079;-71
2022/08/27 09:14:37;;;;;;;33.35;26.15;;;21.00;99.90;;;;;;4927661;29;20210;-70
2022/08/27 09:17:04;;;;;;;35.15;26.30;;;20.80;99.90;;;;;;4917494;29;20052;-70
2022/08/27 09:19:30;;;;;;;29.02;23.60;;;20.70;99.90;;;;;;4909135;29;20058;-70
2022/08/27 09:22:20;;;;;;;26.52;21.52;;;20.70;99.90;;;;;;4906873;29;20317;-72
2022/08/27 09:25:08;;;;;;;19.38;15.95;;;20.50;99.90;;;;;;4907268;29;20033;-72
2022/08/27 09:27:35;;;;;;;20.37;17.23;;;20.50;99.90;;;;;;4907209;29;20043;-72
2022/08/27 09:30:08;;;;;;;19.23;16.00;;;20.30;99.90;;;;;;4907173;29;20138;-72
2022/08/27 09:32:34;;;;;;;19.73;16.02;;;20.20;99.90;;;;;;4906947;29;20094;-72
2022/08/27 09:35:04;;;;;;;19.30;16.63;;;20.20;99.90;;;;;;4910039;29;20039;-72
2022/08/27 09:37:37;;;;;;;17.30;15.23;;;20.30;99.90;;;;;;4925957;29;20218;-78
2022/08/27 09:40:21;;;;;;;17.92;15.32;;;20.40;99.90;;;;;;4927159;29;20028;-76
2022/08/27 09:42:53;;;;;;;16.70;13.82;;;20.50;99.90;;;;;;4926377;29;20259;-76
2022/08/27 09:45:22;;;;;;;16.13;14.50;;;20.70;99.90;;;;;;4925160;29;20028;-76
2022/08/27 09:48:09;;;;;;;15.63;13.70;;;20.80;99.90;;;;;;4909124;29;20302;-75
2022/08/27 09:50:54;;;;;;;15.20;13.55;;;20.80;99.90;;;;;;4925132;29;20341;-73
2022/08/27 09:53:27;;;;;;;15.25;13.10;;;20.90;99.90;;;;;;4925178;29;20063;-75
2022/08/27 09:55:57;;;;;;;16.00;13.60;;;20.90;99.90;;;;;;4925203;29;20062;-75
2022/08/27 09:58:43;;;;;;;17.85;13.18;;;20.90;99.90;;;;;;4906786;29;20058;-78
2022/08/27 10:01:28;;;;;;;13.95;12.10;;;21.10;99.90;;;;;;4906043;29;20044;-75
2022/08/27 10:04:12;;;;;;;12.40;10.98;;;21.20;99.90;;;;;;4875684;29;20041;-74
2022/08/27 10:06:46;;;;;;;13.65;11.45;;;21.30;99.90;;;;;;4886917;29;20203;-75
2022/08/27 10:09:30;;;;;;;12.40;11.15;;;21.30;99.90;;;;;;4888438;29;20029;-74
2022/08/27 10:12:12;;;;;;;14.95;12.55;;;21.40;99.90;;;;;;4888121;29;20043;-75
2022/08/27 10:14:46;;;;;;;14.00;12.30;;;21.40;99.90;;;;;;4887623;29;20021;-74
2022/08/27 10:17:24;;;;;;;13.43;12.02;;;21.50;99.90;;;;;;4888146;29;20040;-75
2022/08/27 10:19:59;;;;;;;13.20;11.90;;;21.70;99.90;;;;;;4887244;29;20088;-74
2022/08/27 10:22:44;;;;;;;14.10;11.77;;;21.80;99.90;;;;;;4887950;29;20033;-75
2022/08/27 10:25:30;;;;;;;13.38;11.90;;;22.00;99.90;;;;;;4886872;29;20093;-75
2022/08/27 10:28:33;;;;;;;13.35;11.98;;;22.20;99.90;;;;;;4887189;29;20029;-73
2022/08/27 10:31:20;;;;;;;13.18;11.48;;;22.30;99.90;;;;;;4887973;29;20100;-75
2022/08/27 10:34:05;;;;;;;12.32;10.88;;;22.50;99.90;;;;;;4887873;29;20047;-76
2022/08/27 10:36:58;;;;;;;13.48;11.75;;;22.50;99.90;;;;;;4891581;29;20032;-74
2022/08/27 10:40:05;;;;;;;14.57;13.02;;;22.50;99.90;;;;;;4891490;29;20089;-74
2022/08/27 10:43:01;;;;;;;13.93;12.43;;;22.40;99.90;;;;;;4889985;29;20025;-74
2022/08/27 10:45:54;;;;;;;16.65;13.60;;;22.40;99.90;;;;;;4890826;29;20044;-72
2022/08/27 10:48:38;;;;;;;15.10;13.50;;;22.30;99.90;;;;;;4891649;29;20033;-73
2022/08/27 10:51:23;;;;;;;14.45;12.70;;;22.20;99.90;;;;;;4891360;29;20196;-73
2022/08/27 10:54:26;;;;;;;15.20;13.25;;;22.30;99.90;;;;;;4891313;29;20029;-73
2022/08/27 10:57:26;;;;;;;15.18;12.43;;;22.40;99.90;;;;;;4857188;29;20109;-73
2022/08/27 11:00:16;;;;;;;16.73;12.90;;;22.40;99.90;;;;;;4884380;29;20037;-72
2022/08/27 11:02:54;;;;;;;16.50;13.68;;;22.40;99.90;;;;;;4912207;29;20076;-72
2022/08/27 11:05:35;;;;;;;16.27;13.82;;;22.40;99.90;;;;;;4928694;29;20062;-73
2022/08/27 11:08:08;;;;;;;17.35;14.75;;;22.30;99.90;;;;;;4928800;29;20032;-73
2022/08/27 11:10:45;;;;;;;17.33;14.45;;;22.20;99.90;;;;;;4927397;29;20039;-73
2022/08/27 11:13:18;;;;;;;18.63;15.10;;;22.20;99.90;;;;;;4913165;29;20039;-72
2022/08/27 11:15:55;;;;;;;16.23;14.48;;;22.30;99.90;;;;;;4909283;29;20451;-79
2022/08/27 11:18:55;;;;;;;19.25;14.55;;;22.20;99.90;;;;;;4921838;29;20036;-73
2022/08/27 11:21:45;;;;;;;18.00;15.13;;;22.30;99.90;;;;;;4902994;29;20028;-74
2022/08/27 11:24:33;;;;;;;19.75;15.63;;;22.30;99.90;;;;;;4928436;29;20048;-75
2022/08/27 11:27:01;;;;;;;;;;;22.20;99.90;;;;;;4928619;29;20032;-74
2022/08/27 11:30:02;;;;;;;18.85;16.52;;;22.20;99.90;;;;;;4927873;29;19907;-74
2022/08/27 11:32:41;;;;;;;19.58;15.68;;;22.20;99.90;;;;;;4927376;29;20039;-75
2022/08/27 11:35:21;;;;;;;23.80;16.52;;;22.20;99.90;;;;;;4928167;29;20052;-73
2022/08/27 11:38:23;;;;;;;19.23;16.35;;;22.00;99.90;;;;;;4910159;29;20043;-76
2022/08/27 11:41:14;;;;;;;18.85;15.50;;;22.00;99.90;;;;;;4923716;29;20090;-74
2022/08/27 11:43:41;;;;;;;20.35;16.48;;;22.00;99.90;;;;;;4908635;29;20060;-74
2022/08/27 11:46:08;;;;;;;18.05;16.13;;;22.00;99.90;;;;;;4900453;29;20044;-74
2022/08/27 11:48:39;;;;;;;20.58;16.15;;;22.10;99.90;;;;;;4927472;29;20309;-74
2022/08/27 11:51:06;;;;;;;19.13;16.50;;;22.20;99.90;;;;;;4928039;29;20090;-73
2022/08/27 11:53:35;;;;;;;17.58;14.88;;;22.30;99.90;;;;;;4925969;29;20024;-74
2022/08/27 11:56:39;;;;;;;17.00;14.05;;;22.40;99.90;;;;;;4927897;29;20030;-74
2022/08/27 11:59:10;;;;;;;17.00;13.98;;;22.50;99.90;;;;;;4912223;29;20020;-74
2022/08/27 12:01:38;;;;;;;18.23;15.35;;;22.60;99.90;;;;;;4910187;29;20059;-75
2022/08/27 12:04:30;;;;;;;18.70;15.35;;;22.60;99.90;;;;;;4928099;29;20128;-74
2022/08/27 12:07:02;;;;;;;19.13;15.32;;;22.70;99.90;;;;;;4927413;29;20052;-74
2022/08/27 12:09:42;;;;;;;17.92;15.02;;;22.70;99.90;;;;;;4927163;29;20224;-75
2022/08/27 12:12:29;;;;;;;21.02;16.70;;;22.80;99.90;;;;;;4927595;29;20290;-73
2022/08/27 12:15:11;;;;;;;18.88;16.30;;;22.90;99.90;;;;;;4910196;29;20083;-73
2022/08/27 12:17:58;;;;;;;17.70;15.02;;;22.90;99.90;;;;;;4926761;29;20034;-75
2022/08/27 12:20:56;;;;;;;20.20;16.42;;;22.90;99.90;;;;;;4924060;29;20083;-74
2022/08/27 12:23:45;;;;;;;18.13;15.73;;;23.00;99.90;;;;;;4926345;29;20047;-76
2022/08/27 12:26:34;;;;;;;21.08;16.73;;;23.10;99.90;;;;;;4915341;29;20345;-74
2022/08/27 12:29:18;;;;;;;20.08;16.15;;;23.10;99.90;;;;;;4926955;29;20312;-74
2022/08/27 12:31:47;;;;;;;19.30;15.77;;;23.10;99.90;;;;;;4926239;29;20028;-75
2022/08/27 12:34:20;;;;;;;21.05;16.60;;;23.20;99.90;;;;;;4926543;29;20032;-75
2022/08/27 12:36:50;;;;;;;19.20;17.08;;;23.30;99.90;;;;;;4924709;29;20024;-73
2022/08/27 12:39:31;;;;;;;18.30;15.38;;;23.20;99.90;;;;;;4910126;29;20031;-76
2022/08/27 12:41:59;;;;;;;22.13;17.25;;;23.40;99.90;;;;;;4925434;29;20032;-73
2022/08/27 12:44:28;;;;;;;18.52;16.55;;;23.30;99.90;;;;;;4910200;29;20027;-74
2022/08/27 12:46:57;;;;;;;;;;;23.40;99.90;;;;;;4926780;29;20195;-74
2022/08/27 12:49:27;;;;;;;21.83;17.15;;;23.40;99.90;;;;;;4927007;29;19929;-72
2022/08/27 12:51:55;;;;;;;27.35;18.52;;;23.40;99.90;;;;;;4909275;29;20036;-73
2022/08/27 12:54:41;;;;;;;18.30;15.57;;;23.40;99.90;;;;;;4926813;29;20047;-74
2022/08/27 12:57:26;;;;;;;23.67;17.63;;;23.50;99.90;;;;;;4926554;29;20225;-72
2022/08/27 13:00:07;;;;;;;20.88;17.17;;;23.60;99.90;;;;;;4926519;29;20055;-73
2022/08/27 13:02:53;;;;;;;20.00;16.75;;;23.70;99.90;;;;;;4922353;29;20112;-73
2022/08/27 13:05:21;;;;;;;23.15;18.58;;;23.90;99.90;;;;;;4902931;29;20024;-75
2022/08/27 13:07:49;;;;;;;22.30;17.85;;;23.90;99.90;;;;;;4924944;29;20034;-74
2022/08/27 13:10:25;;;;;;;23.88;19.35;;;24.00;99.90;;;;;;4925680;29;20103;-74
2022/08/27 13:13:10;;;;;;;22.42;18.40;;;24.10;99.90;;;;;;4926212;29;20051;-75
2022/08/27 13:15:45;;;;;;;21.27;17.55;;;24.20;99.90;;;;;;4925202;29;20032;-75
2022/08/27 13:18:11;;;;;;;23.70;17.73;;;24.20;99.90;;;;;;4916478;29;20302;-75
2022/08/27 13:20:39;;;;;;;22.00;16.48;;;24.30;99.90;;;;;;4913242;29;20280;-76
2022/08/27 13:23:21;;;;;;;23.50;18.58;;;24.30;99.90;;;;;;4920697;29;20032;-75
2022/08/27 13:26:09;;;;;;;21.23;17.00;;;24.50;99.90;;;;;;4924921;29;20063;-74
2022/08/27 13:28:37;;;;;;;21.20;18.38;;;24.60;99.90;;;;;;4923344;29;20053;-75
2022/08/27 13:31:04;;;;;;;;;;;24.70;99.90;;;;;;4925681;29;20270;-75
2022/08/27 13:33:33;;;;;;;21.23;16.90;;;24.70;99.90;;;;;;4925707;29;19911;-78
2022/08/27 13:36:02;;;;;;;20.52;18.08;;;25.00;99.90;;;;;;4925808;29;20329;-74
2022/08/27 13:38:31;;;;;;;20.25;16.40;;;25.00;99.90;;;;;;4925917;29;20028;-75
2022/08/27 13:41:19;;;;;;;19.98;16.38;;;25.10;99.90;;;;;;4925785;29;20027;-75
2022/08/27 13:43:47;;;;;;;18.08;14.82;;;25.30;99.90;;;;;;4921401;29;20090;-76
2022/08/27 13:46:23;;;;;;;18.13;15.68;;;25.90;99.90;;;;;;4924852;29;20028;-75
2022/08/27 13:48:53;;;;;;;19.48;15.43;;;26.60;99.90;;;;;;4924938;29;20015;-74
2022/08/27 13:51:33;;;;;;;17.65;14.05;;;27.10;99.90;;;;;;4908931;29;20055;-76
2022/08/27 13:54:14;;;;;;;16.70;14.10;;;27.60;99.90;;;;;;4926096;29;20074;-75
2022/08/27 13:56:40;;;;;;;15.23;12.82;;;28.00;99.80;;;;;;4917026;29;20044;-76
2022/08/27 13:59:26;;;;;;;14.38;12.52;;;28.40;98.00;;;;;;4911539;29;20315;-76
2022/08/27 14:01:59;;;;;;;15.10;12.63;;;28.70;96.70;;;;;;4913763;29;20463;-74
2022/08/27 14:04:42;;;;;;;16.05;13.60;;;29.00;96.10;;;;;;4918824;29;20040;-75
2022/08/27 14:07:22;;;;;;;14.77;11.93;;;29.50;95.10;;;;;;4925190;29;20044;-76
2022/08/27 14:10:02;;;;;;;13.77;11.50;;;30.50;94.00;;;;;;4927442;29;20028;-76
2022/08/27 14:12:36;;;;;;;15.25;11.80;;;31.30;92.10;;;;;;4929347;29;20036;-76
2022/08/27 14:15:24;;;;;;;16.00;12.07;;;31.10;90.90;;;;;;4930170;29;20032;-76
2022/08/27 14:17:50;;;;;;;14.68;12.77;;;31.40;91.10;;;;;;4929169;29;20098;-75
2022/08/27 14:20:17;;;;;;;17.88;12.80;;;31.50;90.50;;;;;;4923164;29;20302;-76
2022/08/27 14:22:43;;;;;;;15.68;12.02;;;31.20;90.30;;;;;;4925280;29;20132;-76
2022/08/27 14:25:11;;;;;;;16.02;11.48;;;31.40;90.30;;;;;;4924847;29;20020;-75
2022/08/27 14:27:41;;;;;;;13.10;11.40;;;31.90;86.90;;;;;;4929628;29;20032;-75
2022/08/27 14:30:10;;;;;;;10.43;9.40;;;31.70;86.40;;;;;;4922657;29;20290;-76
2022/08/27 14:32:37;;;;;;;13.10;11.10;;;31.80;86.50;;;;;;4914868;29;20361;-76
2022/08/27 14:35:03;;;;;;;14.27;11.63;;;31.60;86.20;;;;;;4932031;29;20028;-76
2022/08/27 14:37:29;;;;;;;15.07;10.93;;;31.70;85.00;;;;;;4931609;29;20028;-74
2022/08/27 14:39:55;;;;;;;14.23;12.52;;;31.30;85.60;;;;;;4931337;29;20366;-76
2022/08/27 14:42:21;;;;;;;14.85;11.05;;;31.20;87.90;;;;;;4929250;29;20076;-73
2022/08/27 14:44:48;;;;;;;12.55;10.30;;;31.20;88.20;;;;;;4923183;29;20032;-74
2022/08/27 14:47:15;;;;;;;13.43;11.68;;;31.90;86.70;;;;;;4912236;29;20321;-74
2022/08/27 14:49:44;;;;;;;12.68;11.43;;;32.60;84.30;;;;;;4928178;29;20032;-74
2022/08/27 14:52:11;;;;;;;13.88;11.68;;;32.80;82.90;;;;;;4928587;29;20043;-75
2022/08/27 14:54:38;;;;;;;14.93;11.38;;;32.00;84.20;;;;;;4929001;29;20068;-74
2022/08/27 14:57:08;;;;;;;12.25;10.82;;;31.10;85.90;;;;;;4928893;29;20032;-74
2022/08/27 14:59:34;;;;;;;16.15;11.40;;;30.60;84.70;;;;;;4928989;29;20024;-75
2022/08/27 15:02:03;;;;;;;11.05;9.80;;;29.70;86.60;;;;;;4927871;29;20056;-73
2022/08/27 15:04:30;;;;;;;12.25;9.98;;;29.10;90.00;;;;;;4911534;29;20266;-73
2022/08/27 15:06:57;;;;;;;14.75;11.65;;;28.80;90.60;;;;;;4922730;29;20024;-74
2022/08/27 15:09:24;;;;;;;14.27;10.85;;;28.20;91.30;;;;;;4911873;29;20088;-76
2022/08/27 15:11:51;;;;;;;12.57;10.80;;;28.30;91.80;;;;;;4888392;29;20057;-73
2022/08/27 15:14:28;;;;;;;12.45;10.90;;;28.30;90.70;;;;;;4888967;29;20344;-75
2022/08/27 15:16:54;;;;;;;14.40;11.93;;;28.10;90.90;;;;;;4888550;29;20049;-77
2022/08/27 15:19:22;;;;;;;14.77;11.82;;;28.00;91.80;;;;;;4886365;29;20108;-74
2022/08/27 15:21:49;;;;;;;15.23;11.15;;;27.80;92.70;;;;;;4886853;29;20041;-73
2022/08/27 15:24:24;;;;;;;16.23;13.32;;;27.50;92.40;;;;;;4888931;29;20342;-74
2022/08/27 15:26:57;;;;;;;15.10;12.38;;;27.30;93.60;;;;;;4871113;29;20043;-74
2022/08/27 15:29:25;;;;;;;15.23;12.23;;;27.40;93.50;;;;;;4888800;29;20107;-75
2022/08/27 15:31:51;;;;;;;14.43;12.75;;;27.50;93.40;;;;;;4888258;29;20047;-76
2022/08/27 15:34:17;;;;;;;13.20;11.80;;;27.40;93.80;;;;;;4888879;29;20263;-74
2022/08/27 15:36:43;;;;;;;14.35;12.63;;;27.40;93.40;;;;;;4888448;29;20100;-74
2022/08/27 15:39:09;;;;;;;15.80;12.27;;;27.40;93.50;;;;;;4873238;29;20236;-74
2022/08/27 15:41:38;;;;;;;14.68;11.75;;;27.20;93.20;;;;;;4872926;29;20115;-76
2022/08/27 15:44:04;;;;;;;13.65;11.77;;;27.20;92.90;;;;;;4927689;29;20199;-77
2022/08/27 15:46:31;;;;;;;13.57;12.05;;;27.20;93.40;;;;;;4909378;29;20024;-73
2022/08/27 15:48:57;;;;;;;15.85;12.57;;;27.10;93.00;;;;;;4910592;29;20024;-75
2022/08/27 15:51:29;;;;;;;13.52;11.30;;;27.00;93.10;;;;;;4926929;29;20039;-75
2022/08/27 15:53:55;;;;;;;16.70;13.27;;;26.90;93.60;;;;;;4927343;29;20032;-75
2022/08/27 15:56:22;;;;;;;15.63;12.63;;;26.70;93.50;;;;;;4927819;29;20047;-75
2022/08/27 15:58:49;;;;;;;15.18;12.48;;;26.70;93.90;;;;;;4927038;29;20032;-74
2022/08/27 16:01:23;;;;;;;15.65;13.05;;;26.50;94.50;;;;;;4927645;29;20060;-76
2022/08/27 16:03:50;;;;;;;18.27;12.40;;;26.30;94.80;;;;;;4910605;29;20334;-77
2022/08/27 16:06:16;;;;;;;16.70;12.18;;;26.40;94.40;;;;;;4927663;29;20333;-76
2022/08/27 16:08:42;;;;;;;15.48;12.85;;;26.50;94.80;;;;;;4922662;29;20032;-75
2022/08/27 16:11:08;;;;;;;17.08;11.75;;;26.70;94.00;;;;;;4927434;29;20207;-75
2022/08/27 16:13:35;;;;;;;15.73;13.38;;;26.80;94.40;;;;;;4910815;29;20024;-75
2022/08/27 16:16:01;;;;;;;14.77;12.43;;;27.00;93.20;;;;;;4926966;29;20040;-76
2022/08/27 16:18:29;;;;;;;14.45;11.75;;;27.10;93.60;;;;;;4895066;29;20027;-77
2022/08/27 16:20:57;;;;;;;14.90;12.35;;;26.90;94.60;;;;;;4926982;29;20038;-77
2022/08/27 16:23:25;;;;;;;16.58;13.15;;;27.40;93.60;;;;;;4927336;29;20028;-75
2022/08/27 16:25:52;;;;;;;14.68;13.15;;;27.80;92.60;;;;;;4926714;29;20341;-76
2022/08/27 16:28:18;;;;;;;20.00;13.15;;;27.90;92.60;;;;;;4905852;29;20383;-74
2022/08/27 16:30:45;;;;;;;17.10;13.07;;;28.20;92.20;;;;;;4894183;29;20104;-74
2022/08/27 16:33:13;;;;;;;17.95;13.55;;;28.20;91.60;;;;;;4926646;29;20023;-73
2022/08/27 16:35:48;;;;;;;16.63;13.02;;;28.00;91.70;;;;;;4910434;29;20029;-76
2022/08/27 16:38:17;;;;;;;18.42;13.90;;;27.50;92.80;;;;;;4927168;29;20210;-75
2022/08/27 16:40:52;;;;;;;17.00;14.38;;;27.20;92.90;;;;;;4910286;29;20285;-75
2022/08/27 16:43:27;;;;;;;20.67;14.75;;;26.50;93.90;;;;;;4926890;29;20059;-77
2022/08/27 16:46:01;;;;;;;19.45;15.88;;;26.20;94.50;;;;;;4911070;29;20039;-74
2022/08/27 16:51:28;;;;;;;21.77;16.50;;;26.70;95.00;;;;;;4924203;29;20032;-74
2022/08/27 16:54:06;;;;;;;19.13;15.68;;;27.50;93.80;;;;;;4926250;29;20032;-73
2022/08/27 16:57:01;;;;;;;21.38;17.40;;;27.80;93.10;;;;;;4910108;29;20024;-75
2022/08/27 16:59:27;;;;;;;21.65;16.35;;;27.80;92.30;;;;;;4894462;29;20062;-75
2022/08/27 17:02:35;;;;;;;21.52;15.60;;;26.70;93.40;;;;;;4909571;29;20337;-75
2022/08/27 17:05:05;;;;;;;24.35;17.02;;;25.80;95.30;;;;;;4909697;29;20044;-75
2022/08/27 17:07:31;;;;;;;20.55;17.25;;;25.20;95.90;;;;;;4910126;29;20028;-75
2022/08/27 17:10:05;;;;;;;23.63;17.35;;;24.70;96.80;;;;;;4921618;29;20028;-75
2022/08/27 17:12:31;;;;;;;26.83;19.92;;;24.20;97.80;;;;;;4909621;29;20024;-74
2022/08/27 17:14:59;;;;;;;22.30;17.88;;;23.90;98.80;;;;;;4926266;29;20344;-76
2022/08/27 17:17:30;;;;;;;27.50;19.08;;;23.50;99.90;;;;;;4926466;29;20108;-74
2022/08/27 17:19:56;;;;;;;25.08;20.33;;;23.10;99.90;;;;;;4916018;29;20032;-74
2022/08/27 17:22:23;;;;;;;25.10;19.27;;;23.00;99.90;;;;;;4874924;29;20024;-75
2022/08/27 17:24:49;;;;;;;22.80;18.73;;;22.80;99.90;;;;;;4906927;29;20092;-75
2022/08/27 17:27:19;;;;;;;25.75;19.15;;;22.70;99.90;;;;;;4907218;29;20051;-74
2022/08/27 17:29:45;;;;;;;20.90;18.67;;;22.70;99.90;;;;;;4875130;29;20056;-75
2022/08/27 17:32:11;;;;;;;25.55;19.55;;;22.60;99.90;;;;;;4874843;29;20029;-74
2022/08/27 17:34:37;;;;;;;22.70;18.38;;;22.60;99.90;;;;;;4890710;29;20033;-74
2022/08/27 17:37:03;;;;;;;24.60;19.08;;;22.50;99.90;;;;;;4890784;29;20017;-74
2022/08/27 17:39:31;;;;;;;27.40;20.60;;;22.50;99.90;;;;;;4890823;29;20020;-74
2022/08/27 17:41:58;;;;;;;25.30;20.88;;;22.50;99.90;;;;;;4890414;29;20028;-76
2022/08/27 17:44:30;;;;;;;23.95;20.60;;;22.40;99.90;;;;;;4890531;29;20028;-75
2022/08/27 17:46:59;;;;;;;24.88;20.63;;;22.30;99.90;;;;;;4899571;29;20358;-75
2022/08/27 17:49:26;;;;;;;31.05;21.02;;;22.30;99.90;;;;;;4925984;29;20038;-74
2022/08/27 17:51:57;;;;;;;29.95;20.70;;;22.20;99.90;;;;;;4908612;29;20055;-75
2022/08/27 17:54:24;;;;;;;25.67;19.70;;;22.10;99.90;;;;;;4925613;29;20028;-75
2022/08/27 17:56:50;;;;;;;25.00;20.95;;;22.10;99.90;;;;;;4889995;29;20302;-75
2022/08/27 17:59:17;;;;;;;31.75;21.05;;;22.10;99.90;;;;;;4890555;29;20039;-74
2022/08/27 18:01:43;;;;;;;25.33;20.75;;;22.00;99.90;;;;;;4868688;29;20081;-74
2022/08/27 18:04:09;;;;;;;26.02;20.77;;;22.00;99.90;;;;;;4863555;29;20033;-76
2022/08/27 18:06:35;;;;;;;26.13;19.92;;;22.00;99.90;;;;;;4880408;29;20041;-75